sensor_id;sensor_type;location;lat;lon;timestamp;temperature;humidity
47773;DHT22;33534;51.028;13.716;2023-07-31T12:43:44;26.60;48.10
47773;DHT22;33534;51.028;13.716;2023-07-31T12:46:11;26.70;47.90
47773;DHT22;33534;51.028;13.716;2023-07-31T12:48:37;26.90;46.20
47773;DHT22;33534;51.028;13.716;2023-07-31T12:51:04;26.70;45.70
47773;DHT22;33534;51.028;13.716;2023-07-31T12:53:29;26.20;45.70
47773;DHT22;33534;51.028;13.716;2023-07-31T12:55:56;25.80;47.00
47773;DHT22;33534;51.028;13.716;2023-07-31T12:58:22;25.60;47.50
47773;DHT22;33534;51.028;13.716;2023-07-31T13:00:48;25.60;47.70
47773;DHT22;33534;51.028;13.716;2023-07-31T13:03:13;25.30;47.00
47773;DHT22;33534;51.028;13.716;2023-07-31T13:05:39;25.30;47.80
47773;DHT22;33534;51.028;13.716;2023-07-31T13:08:05;25.20;47.90
47773;DHT22;33534;51.028;13.716;2023-07-31T13:10:30;25.30;47.90
47773;DHT22;33534;51.028;13.716;2023-07-31T13:12:56;25.40;47.00
47773;DHT22;33534;51.028;13.716;2023-07-31T13:15:22;25.40;47.80
47773;DHT22;33534;51.028;13.716;2023-07-31T13:17:48;25.50;47.80
47773;DHT22;33534;51.028;13.716;2023-07-31T13:20:13;25.50;48.60
47773;DHT22;33534;51.028;13.716;2023-07-31T13:22:39;25.30;48.00
47773;DHT22;33534;51.028;13.716;2023-07-31T13:25:05;25.30;48.30
47773;DHT22;33534;51.028;13.716;2023-07-31T13:27:31;25.20;48.50
47773;DHT22;33534;51.028;13.716;2023-07-31T13:29:57;25.20;48.70
47773;DHT22;33534;51.028;13.716;2023-07-31T13:32:23;25.00;48.40
47773;DHT22;33534;51.028;13.716;2023-07-31T13:34:49;25.00;48.50
47773;DHT22;33534;51.028;13.716;2023-07-31T13:37:15;24.80;49.10
47773;DHT22;33534;51.028;13.716;2023-07-31T13:39:41;25.00;48.70
47773;DHT22;33534;51.028;13.716;2023-07-31T13:42:08;25.20;48.00
47773;DHT22;33534;51.028;13.716;2023-07-31T13:44:38;25.30;48.00
47773;DHT22;33534;51.028;13.716;2023-07-31T13:47:04;25.60;47.70
47773;DHT22;33534;51.028;13.716;2023-07-31T13:49:30;25.80;46.80
47773;DHT22;33534;51.028;13.716;2023-07-31T13:51:56;26.10;46.00
47773;DHT22;33534;51.028;13.716;2023-07-31T13:54:25;26.40;46.30
47773;DHT22;33534;51.028;13.716;2023-07-31T13:56:54;26.60;44.50
47773;DHT22;33534;51.028;13.716;2023-07-31T13:59:20;26.70;45.10
47773;DHT22;33534;51.028;13.716;2023-07-31T14:01:46;26.50;45.60
47773;DHT22;33534;51.028;13.716;2023-07-31T14:04:12;26.40;45.60
47773;DHT22;33534;51.028;13.716;2023-07-31T14:06:38;26.30;45.10
47773;DHT22;33534;51.028;13.716;2023-07-31T14:09:03;26.50;45.00
47773;DHT22;33534;51.028;13.716;2023-07-31T14:11:31;26.70;45.50
47773;DHT22;33534;51.028;13.716;2023-07-31T14:13:57;26.90;44.60
47773;DHT22;33534;51.028;13.716;2023-07-31T14:16:23;27.00;44.20
47773;DHT22;33534;51.028;13.716;2023-07-31T14:18:48;26.90;44.20
47773;DHT22;33534;51.028;13.716;2023-07-31T14:21:14;26.50;44.80
47773;DHT22;33534;51.028;13.716;2023-07-31T14:23:40;26.30;45.50
47773;DHT22;33534;51.028;13.716;2023-07-31T14:26:06;26.10;46.40
47773;DHT22;33534;51.028;13.716;2023-07-31T14:28:32;26.00;46.40
47773;DHT22;33534;51.028;13.716;2023-07-31T14:30:58;26.10;46.30
47773;DHT22;33534;51.028;13.716;2023-07-31T14:33:23;26.40;45.30
47773;DHT22;33534;51.028;13.716;2023-07-31T14:35:51;26.50;45.00
47773;DHT22;33534;51.028;13.716;2023-07-31T14:38:17;26.50;45.70
47773;DHT22;33534;51.028;13.716;2023-07-31T14:40:43;26.60;45.20
47773;DHT22;33534;51.028;13.716;2023-07-31T14:43:08;26.40;45.50
47773;DHT22;33534;51.028;13.716;2023-07-31T14:45:34;26.30;46.10
47773;DHT22;33534;51.028;13.716;2023-07-31T14:48:00;26.10;46.50
